Time;durP1;ratioP1;P1;durP2;ratioP2;P2;SDS_P1;SDS_P2;PMS_P1;PMS_P2;Temp;Humidity;BMP_temperature;BMP_pressure;BME280_temperature;BME280_humidity;BME280_pressure;Samples;Min_cycle;Max_cycle;Signal;HPM_P1;HPM_P2
2022/05/14 00:00:40;;;;;;;1.55;1.45;;;20.70;71.20;;;;;;12801725;23;20172;-88
2022/05/14 00:05:43;;;;;;;4.13;2.30;;;20.80;70.90;;;;;;12793945;23;20171;-88
2022/05/14 00:16:08;;;;;;;2.63;1.75;;;20.70;70.60;;;;;;12799727;23;20175;-88
2022/05/14 00:21:12;;;;;;;1.75;1.60;;;20.70;70.60;;;;;;12766297;23;20215;-88
2022/05/14 00:26:16;;;;;;;2.03;1.83;;;20.60;70.90;;;;;;12766411;23;20714;-88
2022/05/14 00:31:18;;;;;;;2.40;1.55;;;20.30;71.10;;;;;;12790906;23;20234;-88
2022/05/14 00:36:21;;;;;;;2.30;1.65;;;20.10;70.80;;;;;;12791780;23;20579;-87
2022/05/14 00:41:24;;;;;;;2.42;1.70;;;19.90;72.40;;;;;;12790410;23;20697;-88
2022/05/14 00:46:48;;;;;;;2.05;1.55;;;20.20;71.80;;;;;;12790080;23;20278;-88
2022/05/14 00:51:51;;;;;;;1.67;1.58;;;20.10;71.90;;;;;;12833190;23;20237;-88
2022/05/14 00:56:58;;;;;;;2.50;1.83;;;20.20;71.70;;;;;;12765391;23;20207;-88
2022/05/14 01:02:02;;;;;;;4.85;1.83;;;20.10;71.80;;;;;;12789521;23;20215;-88
2022/05/14 01:07:11;;;;;;;2.63;1.88;;;19.80;72.10;;;;;;12789576;23;20207;-88
2022/05/14 01:12:20;;;;;;;2.13;1.70;;;19.80;72.70;;;;;;12807625;23;20238;-88
2022/05/14 01:17:23;;;;;;;1.85;1.73;;;19.90;72.50;;;;;;12765088;23;20183;-88
2022/05/14 01:22:48;;;;;;;1.98;1.55;;;19.50;73.00;;;;;;12789629;23;20180;-88
2022/05/14 01:27:55;;;;;;;3.15;2.28;;;19.30;73.70;;;;;;12788897;23;20176;-88
2022/05/14 01:33:07;;;;;;;3.00;2.30;;;18.80;74.30;;;;;;12789467;23;20538;-88
2022/05/14 01:38:15;;;;;;;1.73;1.55;;;19.10;74.50;;;;;;12788702;23;20199;-88
2022/05/14 01:43:18;;;;;;;4.65;1.70;;;19.30;74.10;;;;;;12788652;23;20210;-88
2022/05/14 01:48:21;;;;;;;3.28;2.30;;;19.60;73.60;;;;;;12789336;23;20258;-88
2022/05/14 01:53:24;;;;;;;4.80;2.45;;;19.10;73.80;;;;;;12788065;23;20200;-88
2022/05/14 01:58:39;;;;;;;4.15;2.25;;;18.20;76.30;;;;;;12791181;23;20183;-88
2022/05/14 02:03:50;;;;;;;5.60;2.50;;;17.70;77.60;;;;;;12792889;23;20264;-88
2022/05/14 02:08:53;;;;;;;4.53;2.22;;;16.60;79.30;;;;;;12792920;23;20234;-88
2022/05/14 02:13:57;;;;;;;2.22;1.80;;;15.80;88.70;;;;;;12792478;23;20213;-88
2022/05/14 02:19:01;;;;;;;2.65;2.28;;;17.10;84.50;;;;;;12792682;23;20562;-88
2022/05/14 02:24:04;;;;;;;4.47;3.08;;;18.50;79.70;;;;;;12792917;23;20180;-88
2022/05/14 02:29:07;;;;;;;4.97;2.80;;;18.40;77.50;;;;;;12792117;23;20215;-88
2022/05/14 02:34:09;;;;;;;5.35;3.42;;;18.10;79.10;;;;;;12792350;23;20519;-88
2022/05/14 02:39:12;;;;;;;2.17;1.83;;;18.20;78.70;;;;;;12791882;23;20207;-88
2022/05/14 02:44:16;;;;;;;2.85;2.00;;;19.00;77.10;;;;;;12767607;23;20187;-88
2022/05/14 02:49:18;;;;;;;1.85;1.60;;;19.10;76.30;;;;;;12792157;23;20235;-88
2022/05/14 02:54:21;;;;;;;2.78;2.10;;;19.40;75.50;;;;;;12792399;23;20234;-88
2022/05/14 02:59:23;;;;;;;4.13;2.67;;;18.90;75.60;;;;;;12795018;23;20203;-88
2022/05/14 03:04:36;;;;;;;2.67;2.28;;;17.50;78.50;;;;;;12794640;23;20172;-88
2022/05/14 03:09:40;;;;;;;5.80;2.40;;;16.80;81.90;;;;;;12834218;23;20171;-89
2022/05/14 03:14:42;;;;;;;6.80;3.42;;;15.70;85.80;;;;;;12791140;23;20203;-89
2022/05/14 03:19:45;;;;;;;8.23;3.20;;;14.90;86.90;;;;;;12767751;23;20179;-88
2022/05/14 03:24:47;;;;;;;4.68;3.05;;;15.00;88.80;;;;;;12791877;23;20518;-88
2022/05/14 03:29:50;;;;;;;10.23;3.88;;;14.00;91.90;;;;;;12793285;23;20289;-88
2022/05/14 03:34:54;;;;;;;5.32;3.40;;;13.60;95.10;;;;;;12791718;23;20935;-87
2022/05/14 03:39:57;;;;;;;5.47;3.50;;;13.10;97.60;;;;;;12816874;23;20222;-88
2022/05/14 03:45:00;;;;;;;7.00;4.78;;;13.60;95.40;;;;;;12790592;23;20184;-88
2022/05/14 03:50:04;;;;;;;10.17;4.07;;;13.50;99.10;;;;;;12791509;23;20710;-88
2022/05/14 03:55:07;;;;;;;3.22;2.30;;;14.00;98.30;;;;;;12790614;23;20251;-88
2022/05/14 04:00:11;;;;;;;3.42;1.75;;;14.90;97.90;;;;;;12791472;23;20172;-88
2022/05/14 04:05:18;;;;;;;2.75;2.35;;;16.20;93.20;;;;;;12791883;23;20183;-88
2022/05/14 04:10:21;;;;;;;2.53;1.40;;;18.00;88.60;;;;;;12790411;23;20176;-88
2022/05/14 04:15:26;;;;;;;4.43;3.53;;;19.50;80.20;;;;;;12792658;23;20197;-88
2022/05/14 04:20:29;;;;;;;1.85;1.70;;;19.30;77.90;;;;;;12765766;23;20219;-88
2022/05/14 04:25:31;;;;;;;1.70;1.60;;;18.90;80.50;;;;;;12811181;23;20172;-88
2022/05/14 04:30:34;;;;;;;7.43;2.78;;;19.40;79.20;;;;;;12789998;23;20184;-88
2022/05/14 04:35:37;;;;;;;1.67;1.55;;;19.60;77.70;;;;;;12789412;23;20203;-88
2022/05/14 04:40:40;;;;;;;2.22;1.45;;;20.00;76.30;;;;;;12789622;23;20180;-88
2022/05/14 04:45:44;;;;;;;1.42;1.30;;;20.30;74.40;;;;;;12788516;23;20262;-88
2022/05/14 04:50:49;;;;;;;2.95;1.88;;;20.10;74.90;;;;;;12789999;23;20179;-88
2022/05/14 04:55:51;;;;;;;2.08;1.45;;;20.30;74.30;;;;;;12789377;23;20199;-88
2022/05/14 05:00:55;;;;;;;1.45;1.35;;;20.30;74.20;;;;;;12788956;23;20534;-88
2022/05/14 05:06:00;;;;;;;2.45;1.85;;;20.30;73.70;;;;;;12789347;23;20210;-87
2022/05/14 05:11:03;;;;;;;2.42;2.13;;;20.40;73.20;;;;;;12789936;23;20569;-87
2022/05/14 05:16:06;;;;;;;1.90;1.77;;;20.20;73.00;;;;;;12789897;23;20204;-87
2022/05/14 05:21:08;;;;;;;2.10;1.90;;;19.50;75.60;;;;;;12789462;23;20180;-87
2022/05/14 05:26:11;;;;;;;2.05;1.48;;;20.30;74.30;;;;;;12815425;23;20171;-88
2022/05/14 05:31:13;;;;;;;2.13;1.58;;;20.20;75.70;;;;;;12791522;23;20227;-87
2022/05/14 05:36:16;;;;;;;2.90;1.83;;;20.30;72.70;;;;;;12789784;23;20262;-87
2022/05/14 05:41:19;;;;;;;1.77;1.67;;;20.40;72.70;;;;;;12792103;23;20549;-87
2022/05/14 05:46:22;;;;;;;2.17;1.50;;;20.50;72.30;;;;;;12789927;23;20690;-87
2022/05/14 05:51:24;;;;;;;3.20;1.88;;;20.50;72.30;;;;;;12790402;23;20180;-87
2022/05/14 06:01:50;;;;;;;1.92;1.63;;;20.60;71.60;;;;;;12796526;23;20172;-87
2022/05/14 06:06:53;;;;;;;2.08;1.42;;;20.30;72.10;;;;;;12790310;23;20265;-87
2022/05/14 06:11:56;;;;;;;2.15;1.80;;;20.80;71.30;;;;;;12765650;23;20238;-86
2022/05/14 06:16:59;;;;;;;2.13;1.92;;;;;;;;;;12791954;23;20188;-86
2022/05/14 06:22:03;;;;;;;1.83;1.58;;;20.80;70.40;;;;;;12814862;23;20168;-86
2022/05/14 06:27:06;;;;;;;4.07;2.00;;;20.70;70.70;;;;;;12790699;23;20180;-87
2022/05/14 06:32:09;;;;;;;1.42;1.30;;;20.60;71.00;;;;;;12789700;23;20222;-86
2022/05/14 06:37:13;;;;;;;2.75;2.13;;;20.70;70.80;;;;;;12809341;23;20246;-86
2022/05/14 06:42:16;;;;;;;2.13;1.65;;;20.80;70.70;;;;;;12815268;23;20164;-87
2022/05/14 06:47:19;;;;;;;3.25;2.20;;;20.70;70.70;;;;;;12795049;23;20196;-86
2022/05/14 06:52:22;;;;;;;2.75;1.75;;;20.80;70.70;;;;;;12794050;23;20168;-87
2022/05/14 06:57:24;;;;;;;1.67;1.50;;;20.80;70.50;;;;;;12817955;23;20187;-87
2022/05/14 07:02:28;;;;;;;1.70;1.60;;;20.80;70.40;;;;;;12792609;23;20242;-88
2022/05/14 07:07:30;;;;;;;2.67;1.95;;;20.80;71.00;;;;;;12792611;23;20524;-87
2022/05/14 07:12:33;;;;;;;2.28;1.85;;;20.80;70.30;;;;;;12791883;23;20188;-87
2022/05/14 07:17:35;;;;;;;2.20;2.00;;;20.90;70.20;;;;;;12793980;23;20192;-86
2022/05/14 07:22:38;;;;;;;2.10;1.95;;;20.90;70.00;;;;;;12793006;23;20172;-87
2022/05/14 07:27:40;;;;;;;2.67;1.77;;;21.00;69.90;;;;;;12792288;23;20176;-86
2022/05/14 07:32:43;;;;;;;2.20;2.00;;;20.90;70.50;;;;;;12791828;23;20218;-87
2022/05/14 07:37:49;;;;;;;5.57;2.22;;;20.70;70.40;;;;;;12809997;23;20164;-87
2022/05/14 07:43:15;;;;;;;11.30;4.13;;;20.70;70.40;;;;;;12809111;23;20164;-87
2022/05/14 07:48:21;;;;;;;12.37;3.43;;;17.00;82.10;;;;;;12789575;23;20203;-88
2022/05/14 07:53:30;;;;;;;18.33;4.00;;;18.40;79.30;;;;;;12809231;23;20180;-87
2022/05/14 07:58:33;;;;;;;10.87;4.23;;;16.90;80.30;;;;;;12806185;23;20171;-87
2022/05/14 08:03:36;;;;;;;5.10;3.70;;;16.20;82.20;;;;;;12808641;23;20217;-87
2022/05/14 08:08:38;;;;;;;12.70;4.03;;;16.50;87.40;;;;;;12791797;23;20202;-87
2022/05/14 08:13:41;;;;;;;10.93;4.47;;;16.20;81.70;;;;;;12790330;23;20190;-88
2022/05/14 08:18:44;;;;;;;7.73;3.77;;;16.00;83.90;;;;;;12790183;23;20512;-88
2022/05/14 08:29:07;;;;;;;6.63;3.97;;;15.80;84.50;;;;;;12787444;23;20183;-89
2022/05/14 08:34:10;;;;;;;9.87;3.40;;;15.50;80.90;;;;;;12813580;23;20180;-87
2022/05/14 08:39:13;;;;;;;12.40;4.33;;;15.40;82.30;;;;;;12814436;23;20233;-88
2022/05/14 08:44:26;;;;;;;8.93;3.70;;;15.40;85.80;;;;;;12789285;23;20682;-86
2022/05/14 08:49:47;;;;;;;12.30;3.27;;;16.50;86.20;;;;;;12791714;23;20266;-86
2022/05/14 08:54:57;;;;;;;11.17;3.03;;;17.60;78.70;;;;;;12789782;23;20234;-86
2022/05/14 09:00:00;;;;;;;6.13;3.17;;;17.40;79.10;;;;;;12804182;23;20223;-86
2022/05/14 09:05:05;;;;;;;8.80;2.93;;;17.40;77.30;;;;;;12789639;23;20195;-86
2022/05/14 09:10:25;;;;;;;6.70;3.40;;;17.40;77.10;;;;;;12791959;23;20173;-85
2022/05/14 09:15:31;;;;;;;8.83;3.37;;;17.30;76.30;;;;;;12790134;23;20195;-85
2022/05/14 09:20:46;;;;;;;16.60;5.17;;;17.40;75.80;;;;;;12809740;23;20167;-89
2022/05/14 09:25:48;;;;;;;13.20;4.67;;;17.10;79.90;;;;;;12788045;23;20542;-88
2022/05/14 09:30:57;;;;;;;9.37;4.07;;;16.80;80.90;;;;;;12791801;23;20519;-88
2022/05/14 09:36:01;;;;;;;7.03;4.17;;;17.70;89.40;;;;;;12787891;23;20234;-87
2022/05/14 09:41:10;;;;;;;8.23;3.78;;;19.00;86.50;;;;;;12762254;23;20180;-87
2022/05/14 09:46:28;;;;;;;6.65;4.28;;;19.90;81.80;;;;;;12797747;23;20226;-86
2022/05/14 09:51:36;;;;;;;6.70;4.22;;;20.00;79.10;;;;;;12810156;23;20167;-85
2022/05/14 09:57:06;;;;;;;11.63;3.03;;;20.10;77.90;;;;;;12809628;23;20381;-86
2022/05/14 10:02:46;;;;;;;7.33;2.87;;;18.80;72.40;;;;;;12815376;23;20175;-85
2022/05/14 10:08:24;;;;;;;10.33;3.30;;;18.30;72.80;;;;;;12791843;23;20226;-86
2022/05/14 10:13:53;;;;;;;10.90;3.37;;;18.60;74.00;;;;;;12750699;23;20184;-85
2022/05/14 10:19:49;;;;;;;7.93;3.67;;;18.70;73.00;;;;;;12738862;23;20241;-85
2022/05/14 10:31:05;;;;;;;8.38;2.80;;;19.30;71.10;;;;;;12523576;23;20237;-85
2022/05/14 10:36:30;;;;;;;5.35;2.63;;;19.70;71.10;;;;;;12521299;23;20198;-84
2022/05/14 10:41:44;;;;;;;5.60;2.78;;;19.70;70.10;;;;;;12544314;23;20218;-85
2022/05/14 10:46:48;;;;;;;7.03;2.28;;;19.80;70.90;;;;;;12520233;23;20213;-84
2022/05/14 10:51:52;;;;;;;6.13;3.63;;;20.10;70.20;;;;;;12545492;23;20178;-85
2022/05/14 10:57:31;;;;;;;6.15;2.55;;;20.00;70.20;;;;;;12664866;23;20231;-85
2022/05/14 11:02:52;;;;;;;15.52;3.40;;;19.60;71.30;;;;;;12793758;23;20183;-85
2022/05/14 11:08:10;;;;;;;5.05;1.70;;;20.00;70.50;;;;;;12791668;23;20179;-85
2022/05/14 11:13:24;;;;;;;6.22;2.30;;;20.20;70.00;;;;;;12813099;23;20249;-85
2022/05/14 11:18:27;;;;;;;9.30;2.83;;;20.40;69.80;;;;;;12792973;23;20597;-85
2022/05/14 11:23:30;;;;;;;5.32;2.30;;;20.30;69.80;;;;;;12812931;23;20531;-85
2022/05/14 11:28:32;;;;;;;11.98;2.70;;;20.30;69.40;;;;;;12812818;23;20222;-85
2022/05/14 11:33:36;;;;;;;5.70;2.63;;;20.00;69.80;;;;;;12810110;23;20168;-85
2022/05/14 11:38:51;;;;;;;6.20;2.58;;;20.10;70.00;;;;;;12791196;23;20226;-85
2022/05/14 11:43:54;;;;;;;8.02;3.13;;;20.00;69.10;;;;;;12810200;23;20195;-85
2022/05/14 11:49:20;;;;;;;4.50;2.05;;;19.80;68.10;;;;;;12792461;23;20195;-85
2022/05/14 11:54:31;;;;;;;5.22;1.95;;;19.70;70.60;;;;;;12793792;23;20219;-85
2022/05/14 12:00:13;;;;;;;4.57;2.20;;;20.10;70.40;;;;;;12816899;23;20231;-85
2022/05/14 12:05:29;;;;;;;7.50;2.88;;;20.10;70.40;;;;;;12762181;23;20615;-85
2022/05/14 12:10:49;;;;;;;2.95;1.98;;;20.20;70.10;;;;;;12791141;23;20179;-86
2022/05/14 12:15:55;;;;;;;3.33;2.00;;;20.30;69.90;;;;;;12815449;23;20621;-86
2022/05/14 12:21:05;;;;;;;5.57;2.08;;;20.30;69.60;;;;;;12791360;23;20179;-86
2022/05/14 12:26:28;;;;;;;4.18;2.15;;;20.20;69.60;;;;;;12835531;23;20171;-86
2022/05/14 12:36:55;;;;;;;4.25;2.15;;;20.00;69.80;;;;;;12793565;23;20670;-85
2022/05/14 12:42:01;;;;;;;6.82;2.00;;;20.30;69.50;;;;;;12793360;23;20160;-85
2022/05/14 12:47:24;;;;;;;3.85;2.20;;;20.20;69.50;;;;;;12815304;23;20211;-85
2022/05/14 12:52:32;;;;;;;6.10;2.20;;;20.50;68.90;;;;;;12833880;23;20536;-85
2022/05/14 12:57:37;;;;;;;8.57;2.17;;;20.50;69.20;;;;;;12791011;23;20263;-85
2022/05/14 13:02:44;;;;;;;5.93;3.55;;;20.30;68.70;;;;;;12796145;23;20198;-86
2022/05/14 13:07:57;;;;;;;2.60;1.80;;;20.20;69.40;;;;;;12809924;23;20171;-85
2022/05/14 13:13:03;;;;;;;8.07;1.98;;;20.20;69.10;;;;;;12790350;23;20227;-85
2022/05/14 13:18:32;;;;;;;4.15;2.60;;;20.10;68.00;;;;;;12790081;23;20853;-85
2022/05/14 13:23:37;;;;;;;3.55;1.92;;;20.20;69.70;;;;;;12809206;23;20199;-85
2022/05/14 13:28:41;;;;;;;6.10;2.85;;;20.30;69.20;;;;;;12789688;23;20184;-84
2022/05/14 13:33:56;;;;;;;6.00;2.70;;;20.50;67.60;;;;;;12809306;23;20168;-85
2022/05/14 13:39:09;;;;;;;8.73;2.40;;;20.10;69.50;;;;;;12809645;23;20191;-85
2022/05/14 13:44:38;;;;;;;4.15;3.30;;;20.20;69.60;;;;;;12832843;23;20171;-85
2022/05/14 13:49:41;;;;;;;2.63;2.17;;;20.30;67.70;;;;;;12786509;23;20623;-84
2022/05/14 13:54:43;;;;;;;9.98;2.50;;;20.00;69.60;;;;;;12819481;23;20218;-85
2022/05/14 13:59:48;;;;;;;3.97;2.45;;;20.20;69.30;;;;;;12794792;23;20638;-85
2022/05/14 14:04:57;;;;;;;4.88;2.50;;;20.40;68.90;;;;;;12794856;23;20586;-84
2022/05/14 14:10:07;;;;;;;4.32;2.25;;;20.30;68.90;;;;;;12837997;23;20195;-85
2022/05/14 14:15:15;;;;;;;5.82;2.08;;;20.30;68.80;;;;;;12793586;23;20536;-84
2022/05/14 14:20:19;;;;;;;8.65;2.55;;;20.20;67.80;;;;;;12814132;23;20164;-85
2022/05/14 14:25:23;;;;;;;2.53;1.90;;;20.00;68.60;;;;;;12796436;23;20171;-84
2022/05/14 14:30:25;;;;;;;5.78;2.25;;;20.40;69.00;;;;;;12794861;23;20176;-85
2022/05/14 14:35:27;;;;;;;7.72;2.67;;;20.30;69.20;;;;;;12838671;23;20187;-84
2022/05/14 14:40:30;;;;;;;3.08;2.03;;;20.10;67.00;;;;;;12794701;23;20523;-85
2022/05/14 14:45:33;;;;;;;4.28;2.45;;;20.20;69.50;;;;;;12818075;23;20584;-85
2022/05/14 14:50:36;;;;;;;3.97;2.10;;;20.40;69.30;;;;;;12795101;23;20176;-84
2022/05/14 14:55:38;;;;;;;3.53;2.13;;;20.40;69.00;;;;;;12793925;23;20542;-85
2022/05/14 15:00:45;;;;;;;8.70;2.40;;;20.40;68.60;;;;;;12795557;23;20206;-85
2022/05/14 15:05:50;;;;;;;5.80;2.25;;;20.40;65.60;;;;;;12823157;23;20217;-85
2022/05/14 15:10:53;;;;;;;8.73;2.95;;;19.90;67.80;;;;;;12793714;23;20518;-85
2022/05/14 15:15:56;;;;;;;9.70;2.75;;;19.20;68.70;;;;;;12806906;23;20184;-85
2022/05/14 15:20:58;;;;;;;7.25;2.60;;;19.10;70.80;;;;;;12796956;23;20203;-85
2022/05/14 15:26:01;;;;;;;7.38;2.78;;;19.30;71.10;;;;;;12799337;23;20478;-84
2022/05/14 15:31:09;;;;;;;2.85;2.20;;;19.10;72.10;;;;;;12792595;23;20222;-85
2022/05/14 15:36:11;;;;;;;8.70;3.72;;;19.40;71.80;;;;;;12813094;23;20218;-84
2022/05/14 15:41:14;;;;;;;4.30;2.58;;;19.70;71.00;;;;;;12794010;23;20176;-85
2022/05/14 15:46:24;;;;;;;13.45;3.08;;;19.60;68.00;;;;;;12794590;23;20204;-84
2022/05/14 15:51:29;;;;;;;4.95;2.42;;;19.30;70.60;;;;;;12814282;23;20195;-84
2022/05/14 15:56:34;;;;;;;5.63;2.63;;;19.10;70.30;;;;;;12847936;23;20199;-85
2022/05/14 16:01:37;;;;;;;5.15;1.95;;;19.50;68.40;;;;;;12847900;23;20183;-86
2022/05/14 16:06:39;;;;;;;3.00;1.90;;;20.00;71.20;;;;;;12847191;23;20313;-85
2022/05/14 16:17:03;;;;;;;6.22;2.40;;;19.70;71.00;;;;;;12859618;23;20171;-85
2022/05/14 16:22:06;;;;;;;3.22;2.00;;;20.20;70.40;;;;;;12894285;23;20174;-85
2022/05/14 16:27:08;;;;;;;4.20;2.53;;;20.20;69.90;;;;;;12870139;23;20251;-85
2022/05/14 16:32:11;;;;;;;2.20;1.98;;;20.00;69.20;;;;;;12854451;23;20236;-84
2022/05/14 16:37:14;;;;;;;3.00;1.98;;;19.60;71.40;;;;;;12853783;23;20176;-85
2022/05/14 16:42:16;;;;;;;5.10;2.28;;;19.60;71.30;;;;;;12879114;23;20203;-85
2022/05/14 16:47:26;;;;;;;3.67;2.28;;;19.20;71.90;;;;;;12859502;23;20235;-85
2022/05/14 16:52:31;;;;;;;4.32;2.13;;;20.00;69.60;;;;;;12853244;23;20246;-84
2022/05/14 16:57:35;;;;;;;3.28;2.53;;;20.10;70.20;;;;;;12878517;23;20231;-84
2022/05/14 17:02:37;;;;;;;3.20;1.92;;;19.60;71.30;;;;;;12851995;23;20231;-84
2022/05/14 17:07:39;;;;;;;2.67;1.70;;;19.80;71.30;;;;;;12853411;23;20238;-84
2022/05/14 17:12:42;;;;;;;2.83;1.80;;;20.00;69.90;;;;;;12852924;23;20247;-85
2022/05/14 17:17:45;;;;;;;2.15;1.92;;;20.10;70.10;;;;;;12854051;23;20219;-85
2022/05/14 17:22:47;;;;;;;4.30;2.35;;;20.20;69.80;;;;;;12853527;23;20227;-85
2022/05/14 17:27:50;;;;;;;3.97;2.35;;;20.30;69.90;;;;;;12838386;23;20172;-85
2022/05/14 17:32:53;;;;;;;4.60;2.00;;;20.10;70.00;;;;;;12798866;23;20227;-84
2022/05/14 17:43:51;;;;;;;3.10;2.10;;;20.20;69.10;;;;;;12817783;23;20544;-85
2022/05/14 17:48:54;;;;;;;5.70;2.30;;;20.00;70.80;;;;;;12773931;23;20211;-84
2022/05/14 17:53:59;;;;;;;4.97;2.33;;;20.10;69.80;;;;;;12801265;23;20180;-85
2022/05/14 17:59:02;;;;;;;4.47;2.47;;;19.90;70.90;;;;;;12821753;23;20721;-85
2022/05/14 18:04:05;;;;;;;3.88;2.47;;;20.00;70.80;;;;;;12816846;23;20171;-84
2022/05/14 18:09:08;;;;;;;3.38;2.00;;;20.10;69.90;;;;;;12799866;23;20655;-85
2022/05/14 18:14:16;;;;;;;9.82;3.25;;;20.00;70.80;;;;;;12798347;23;20206;-84
2022/05/14 18:19:24;;;;;;;4.47;2.05;;;19.90;69.80;;;;;;12838755;23;20187;-85
2022/05/14 18:24:27;;;;;;;3.40;2.45;;;20.00;71.00;;;;;;12817318;23;20199;-85
2022/05/14 18:29:48;;;;;;;3.15;2.10;;;20.00;70.90;;;;;;12821782;23;20206;-85
2022/05/14 18:34:52;;;;;;;2.35;2.15;;;19.90;71.10;;;;;;12815862;23;20238;-85
2022/05/14 18:39:58;;;;;;;5.35;2.38;;;19.90;71.20;;;;;;12799913;23;20188;-85
2022/05/14 18:45:03;;;;;;;5.18;2.47;;;19.90;71.30;;;;;;12799052;23;20184;-85
2022/05/14 18:50:07;;;;;;;3.08;2.30;;;19.80;71.40;;;;;;12823657;23;20578;-85
2022/05/14 18:55:11;;;;;;;3.85;2.38;;;19.60;71.80;;;;;;12815582;23;20187;-85
2022/05/14 19:00:16;;;;;;;2.40;1.90;;;19.70;71.90;;;;;;12800171;23;20188;-85
2022/05/14 19:10:41;;;;;;;9.57;2.25;;;19.70;71.90;;;;;;12790760;23;20183;-85
2022/05/14 19:15:44;;;;;;;3.22;2.05;;;19.80;71.70;;;;;;12792812;23;20243;-86
2022/05/14 19:20:47;;;;;;;12.77;4.38;;;19.80;71.60;;;;;;12793330;23;20180;-86
2022/05/14 19:25:50;;;;;;;4.00;2.22;;;19.50;70.80;;;;;;12818242;23;20199;-87
2022/05/14 19:30:53;;;;;;;2.63;2.00;;;19.50;72.30;;;;;;12818214;23;20168;-86
2022/05/14 19:35:56;;;;;;;2.92;2.58;;;19.40;72.50;;;;;;12789219;23;20659;-86
2022/05/14 19:41:01;;;;;;;3.63;2.00;;;19.70;72.20;;;;;;12791082;23;20551;-86
2022/05/14 19:46:09;;;;;;;3.10;2.13;;;19.60;72.30;;;;;;12794664;23;20196;-87
2022/05/14 19:51:13;;;;;;;3.25;2.13;;;19.70;72.30;;;;;;12811943;23;20164;-86
2022/05/14 19:56:17;;;;;;;3.17;1.92;;;19.60;72.40;;;;;;12793099;23;20188;-86
2022/05/14 20:01:19;;;;;;;3.95;2.20;;;19.50;72.60;;;;;;12793416;23;20168;-86
2022/05/14 20:06:23;;;;;;;2.38;1.98;;;19.40;72.90;;;;;;12790715;23;20163;-87
2022/05/14 20:11:25;;;;;;;2.53;2.10;;;19.30;73.10;;;;;;12814091;23;20203;-87
2022/05/14 20:21:49;;;;;;;3.05;1.77;;;18.90;74.30;;;;;;12788502;23;20243;-87
2022/05/14 20:26:52;;;;;;;2.53;2.33;;;19.10;74.20;;;;;;12791047;23;20198;-87
2022/05/14 20:31:57;;;;;;;4.25;2.67;;;19.10;74.00;;;;;;12813293;23;20195;-87
2022/05/14 20:36:59;;;;;;;3.50;2.28;;;19.10;73.90;;;;;;12788101;23;20196;-87
2022/05/14 20:42:02;;;;;;;1.92;1.73;;;19.20;73.80;;;;;;12788592;23;20206;-87
2022/05/14 20:47:05;;;;;;;3.25;2.13;;;19.30;73.60;;;;;;12814917;23;20270;-87
2022/05/14 20:52:08;;;;;;;2.60;2.40;;;19.30;73.70;;;;;;12790081;23;20184;-87
2022/05/14 20:57:11;;;;;;;2.38;2.13;;;19.30;73.80;;;;;;12814727;23;20586;-87
2022/05/14 21:02:14;;;;;;;3.20;1.98;;;19.30;73.70;;;;;;12814626;23;20242;-87
2022/05/14 21:07:17;;;;;;;2.90;2.13;;;19.30;73.80;;;;;;12789653;23;20175;-87
2022/05/14 21:12:19;;;;;;;2.42;1.98;;;19.30;74.20;;;;;;12791924;23;20226;-87
2022/05/14 21:17:22;;;;;;;2.40;2.10;;;19.30;73.80;;;;;;12791985;23;20645;-87
2022/05/14 21:22:24;;;;;;;6.32;2.92;;;19.30;73.60;;;;;;12788484;23;20183;-87
2022/05/14 21:27:26;;;;;;;4.75;2.70;;;18.50;74.70;;;;;;12789894;23;20206;-87
2022/05/14 21:32:29;;;;;;;3.35;2.45;;;17.50;78.70;;;;;;12788887;23;20518;-87
2022/05/14 21:37:40;;;;;;;7.22;3.10;;;18.60;76.50;;;;;;12789465;23;20199;-87
2022/05/14 21:42:57;;;;;;;8.32;3.50;;;18.90;75.30;;;;;;12809064;23;20167;-87
2022/05/14 21:48:00;;;;;;;3.97;2.53;;;18.30;75.30;;;;;;12791412;23;20199;-87
2022/05/14 21:53:04;;;;;;;5.05;2.60;;;18.60;76.10;;;;;;12792145;23;20168;-87
2022/05/14 21:58:07;;;;;;;2.78;1.90;;;18.80;75.80;;;;;;12789351;23;20674;-87
2022/05/14 22:03:15;;;;;;;5.00;2.97;;;18.50;76.20;;;;;;12815479;23;20226;-87
2022/05/14 22:08:18;;;;;;;5.60;2.60;;;18.30;76.80;;;;;;12789834;23;20184;-87
2022/05/14 22:13:24;;;;;;;2.67;2.35;;;18.10;77.20;;;;;;12832849;23;20175;-87
2022/05/14 22:18:27;;;;;;;4.68;2.47;;;18.30;77.30;;;;;;12795805;23;20183;-87
2022/05/14 22:23:29;;;;;;;3.30;2.15;;;18.50;76.80;;;;;;12819161;23;20235;-87
2022/05/14 22:28:32;;;;;;;3.70;2.50;;;18.60;76.40;;;;;;12795613;23;20202;-87
2022/05/14 22:33:38;;;;;;;4.50;2.58;;;18.30;77.20;;;;;;12795074;23;20176;-87
2022/05/14 22:38:41;;;;;;;2.35;1.83;;;18.20;77.20;;;;;;12817474;23;20261;-87
2022/05/14 22:43:43;;;;;;;7.68;2.90;;;18.30;77.30;;;;;;12811852;23;20172;-87
2022/05/14 22:48:47;;;;;;;5.00;1.98;;;18.20;77.20;;;;;;12796212;23;20195;-87
2022/05/14 22:53:52;;;;;;;3.15;2.20;;;18.00;78.20;;;;;;12818370;23;20199;-87
2022/05/14 22:58:55;;;;;;;4.68;2.25;;;18.00;78.50;;;;;;12792661;23;20203;-87
2022/05/14 23:03:57;;;;;;;6.72;3.67;;;18.00;78.30;;;;;;12793015;23;20180;-87
2022/05/14 23:09:00;;;;;;;4.28;2.60;;;17.30;79.00;;;;;;12792731;23;20639;-87
2022/05/14 23:14:03;;;;;;;9.43;3.42;;;17.40;80.80;;;;;;12791737;23;20183;-87
2022/05/14 23:19:06;;;;;;;4.10;2.70;;;17.40;79.90;;;;;;12791696;23;20254;-87
2022/05/14 23:24:08;;;;;;;5.90;3.28;;;16.90;82.80;;;;;;12792230;23;20176;-87
2022/05/14 23:29:10;;;;;;;2.38;1.90;;;17.00;82.00;;;;;;12811112;23;20167;-87
2022/05/14 23:34:13;;;;;;;6.50;2.85;;;17.20;82.90;;;;;;12792642;23;20262;-87
2022/05/14 23:39:15;;;;;;;4.30;2.95;;;17.20;82.20;;;;;;12793733;23;20215;-87
2022/05/14 23:44:18;;;;;;;10.77;4.50;;;17.40;81.20;;;;;;12791927;23;20569;-87
2022/05/14 23:49:20;;;;;;;6.45;2.85;;;15.70;83.80;;;;;;12795438;23;20234;-87
2022/05/14 23:54:24;;;;;;;4.93;3.20;;;15.60;90.80;;;;;;12812085;23;20511;-88
